Decoded Metar for UKBB (KIEV in UKRAINE) (IATA:KBP) | Meteo·Mobile Aviation Weather
aviador You're here:

UKBB Decoded Metar

KIEV in UKRAINE
Report Time2018-09-19 20:30:00
UTC Time2018-09-19 20:51:38
Flight Rules vfr VFR
Wind230° at 6 kt
W.Decomp.*RWY 18: 4.2 kt HW 4.2 kt RCW
W.Rank230° ranks 12
Current wind is below 230° avg. (7.0)
Visibility9999 m
Phenomena:N/A
Clouds:N/A
Expected CloudBase > 800 ft AGL from Temp-Dew spread
CeilingNone
Temp13°C (ISA -1)
Dew Point11°C (88% RH)
AAT11.2°C
QNH1021 hPa
Density Alt151 ft
Elevation390 ft
Report Wrong Elevation
Raw Report
METAR UKBB 192030Z 23003MPS CAVOK 13/11 Q1021 R88/D NOSIG=

Extra information for UKBB:More info

Metar Taf Metar & Taf Last 4 Metars F.Rules Stats Wind Profile Meteogram Temp Stats Airport Information Weather charts Add Link Nearby VenuesMetar ALERT Operation Metar Decoded Social comments